createdAt,value
2019-05-05T00:04:16.487Z,3.48
2019-05-05T00:09:21.876Z,3.53
2019-05-05T00:14:57.357Z,3.53
2019-05-05T00:20:05.138Z,3.46
2019-05-05T00:25:11.500Z,3.46
2019-05-05T00:30:17.503Z,3.37
2019-05-05T00:35:22.775Z,3.14
2019-05-05T00:40:28.436Z,3.11
2019-05-05T00:45:35.073Z,3.06
2019-05-05T00:50:41.805Z,3.02
2019-05-05T00:55:47.199Z,2.97
2019-05-05T01:01:06.804Z,3.01
2019-05-05T01:06:21.170Z,3.08
2019-05-05T01:11:26.760Z,3.00
2019-05-05T01:16:32.459Z,3.00
2019-05-05T01:21:40.297Z,3.08
2019-05-05T01:26:48.224Z,3.04
2019-05-05T01:31:56.236Z,2.98
2019-05-05T01:37:08.175Z,3.07
2019-05-05T01:42:18.486Z,3.13
2019-05-05T01:47:25.521Z,3.25
2019-05-05T01:52:34.460Z,3.29
2019-05-05T01:57:44.956Z,3.33
2019-05-05T02:02:50.729Z,3.45
2019-05-05T02:07:56.992Z,3.51
2019-05-05T02:13:04.638Z,3.46
2019-05-05T02:18:10.654Z,3.46
2019-05-05T02:23:17.246Z,3.50
2019-05-05T02:28:24.166Z,3.51
2019-05-05T02:33:29.519Z,3.56
2019-05-05T02:38:35.681Z,3.56
2019-05-05T02:43:44.800Z,3.42
2019-05-05T02:48:50.860Z,3.46
2019-05-05T02:53:58.934Z,3.42
2019-05-05T02:59:08.081Z,3.40
2019-05-05T03:04:14.292Z,3.29
2019-05-05T03:09:21.691Z,3.24
2019-05-05T03:14:29.728Z,3.19
2019-05-05T03:19:35.211Z,3.07
2019-05-05T03:24:41.058Z,3.03
2019-05-05T03:29:47.155Z,3.00
2019-05-05T03:34:53.724Z,2.90
2019-05-05T03:40:06.727Z,2.83
2019-05-05T03:45:26.303Z,2.76
2019-05-05T03:50:33.988Z,2.68
2019-05-05T03:55:39.140Z,2.67
2019-05-05T04:01:20.598Z,2.78
2019-05-05T04:06:38.941Z,2.81
2019-05-05T04:11:45.531Z,2.86
2019-05-05T04:17:19.112Z,2.88
2019-05-05T04:22:24.447Z,2.96
2019-05-05T04:27:29.722Z,2.93
2019-05-05T04:32:35.217Z,2.91
2019-05-05T04:37:40.528Z,2.92
2019-05-05T04:42:45.969Z,2.91
2019-05-05T04:47:55.450Z,2.84
2019-05-05T04:53:02.074Z,2.86
2019-05-05T04:58:07.534Z,3.02
2019-05-05T05:03:36.750Z,3.13
2019-05-05T05:08:44.187Z,3.24
2019-05-05T05:13:49.617Z,3.20
2019-05-05T05:18:55.957Z,3.26
2019-05-05T05:24:03.867Z,3.42
2019-05-05T05:29:09.328Z,3.53
2019-05-05T05:34:14.978Z,3.51
2019-05-05T05:39:48.607Z,3.59
2019-05-05T05:45:19.211Z,3.71
2019-05-05T05:50:44.430Z,3.81
2019-05-05T05:55:49.759Z,3.82
2019-05-05T06:00:56.826Z,3.90
2019-05-05T06:06:02.154Z,3.93
2019-05-05T06:11:07.994Z,4.08
2019-05-05T06:16:14.569Z,4.17
2019-05-05T06:21:20.041Z,4.24
2019-05-05T06:26:25.457Z,4.45
2019-05-05T06:31:30.678Z,4.51
2019-05-05T06:36:36.281Z,4.59
2019-05-05T06:42:05.937Z,4.69
2019-05-05T06:47:23.705Z,4.75
2019-05-05T06:52:41.990Z,4.64
2019-05-05T06:57:36.743Z,4.53
2019-05-05T07:02:44.478Z,4.73
2019-05-05T07:07:49.955Z,4.83
2019-05-05T07:12:56.344Z,4.99
2019-05-05T07:18:03.574Z,5.46
2019-05-05T07:23:08.793Z,5.53
2019-05-05T07:28:14.832Z,5.58
2019-05-05T07:33:20.542Z,5.72
2019-05-05T07:38:26.362Z,6.02
2019-05-05T07:43:31.647Z,6.38
2019-05-05T07:48:37.120Z,6.61
2019-05-05T07:53:44.239Z,6.83
2019-05-05T07:58:49.495Z,6.70
2019-05-05T08:03:54.836Z,6.96
2019-05-05T08:09:00.207Z,6.95
2019-05-05T08:14:05.618Z,7.06
2019-05-05T08:19:45.279Z,6.96
2019-05-05T08:25:03.893Z,7.09
2019-05-05T08:30:24.296Z,7.25
2019-05-05T08:35:29.108Z,7.37
2019-05-05T08:40:34.757Z,7.33
2019-05-05T08:45:40.119Z,7.38
2019-05-05T08:50:45.909Z,7.31
2019-05-05T08:55:51.262Z,7.70
2019-05-05T09:00:56.643Z,8.12
2019-05-05T09:06:01.935Z,8.20
2019-05-05T09:11:07.468Z,9.07
2019-05-05T09:16:14.475Z,9.45
2019-05-05T09:21:19.998Z,9.52
2019-05-05T09:26:47.459Z,9.60
2019-05-05T09:31:54.061Z,10.00
2019-05-05T09:37:03.659Z,10.38
2019-05-05T09:42:09.337Z,9.42
2019-05-05T09:47:16.142Z,9.78
2019-05-05T09:52:21.567Z,9.57
2019-05-05T09:57:27.285Z,9.54
2019-05-05T10:02:34.513Z,10.07
2019-05-05T10:07:40.231Z,9.43
2019-05-05T10:12:45.596Z,8.95
2019-05-05T10:17:51.002Z,8.75
2019-05-05T10:22:56.481Z,9.46
2019-05-05T10:28:04.016Z,10.33
2019-05-05T10:33:08.781Z,10.99
2019-05-05T10:38:14.518Z,10.88
2019-05-05T10:43:19.819Z,11.15
2019-05-05T10:48:25.169Z,10.75
2019-05-05T10:53:30.398Z,11.00
2019-05-05T10:58:36.428Z,11.06
2019-05-05T11:03:44.500Z,10.69
2019-05-05T11:08:49.488Z,10.29
2019-05-05T11:13:54.934Z,10.48
2019-05-05T11:19:00.732Z,10.23
2019-05-05T11:24:06.111Z,10.90
2019-05-05T11:29:13.059Z,11.37
2019-05-05T11:34:26.717Z,12.04
2019-05-05T11:39:34.029Z,12.63
2019-05-05T11:44:39.495Z,13.32
2019-05-05T11:49:44.802Z,13.93
2019-05-05T11:54:50.288Z,14.67
2019-05-05T11:59:55.718Z,15.46
2019-05-05T12:05:01.129Z,15.58
2019-05-05T12:10:08.543Z,14.52
2019-05-05T12:15:13.910Z,15.14
2019-05-05T12:20:24.113Z,15.62
2019-05-05T12:25:57.641Z,15.00
2019-05-05T12:31:05.402Z,14.93
2019-05-05T12:36:11.064Z,14.10
2019-05-05T12:41:16.434Z,15.15
2019-05-05T12:46:59.318Z,13.72
2019-05-05T12:52:04.719Z,12.85
2019-05-05T12:57:10.969Z,11.29
2019-05-05T13:02:16.350Z,9.75
2019-05-05T13:07:23.809Z,9.71
2019-05-05T13:12:29.103Z,9.36
2019-05-05T13:17:34.445Z,9.74
2019-05-05T13:23:00.592Z,10.06
2019-05-05T13:28:06.365Z,10.26
2019-05-05T13:33:14.028Z,11.33
2019-05-05T13:38:18.848Z,13.55
2019-05-05T13:43:24.119Z,17.06
2019-05-05T13:48:29.354Z,16.57
2019-05-05T13:53:34.639Z,17.88
2019-05-05T13:58:40.069Z,18.17
2019-05-05T14:03:47.011Z,20.90
2019-05-05T14:08:54.122Z,21.68
2019-05-05T14:13:59.589Z,22.62
2019-05-05T14:19:04.870Z,24.22
2019-05-05T14:24:23.223Z,24.67
2019-05-05T14:29:46.731Z,25.09
2019-05-05T14:35:10.242Z,24.81
2019-05-05T14:40:16.142Z,24.94
2019-05-05T14:45:23.530Z,25.99
2019-05-05T14:50:28.883Z,21.56
2019-05-05T14:55:34.120Z,24.84
2019-05-05T15:00:39.578Z,26.18
2019-05-05T15:06:15.390Z,27.01
2019-05-05T15:11:37.881Z,28.02
2019-05-05T15:16:44.125Z,25.88
2019-05-05T15:21:49.374Z,19.68
2019-05-05T15:26:55.275Z,16.88
2019-05-05T15:32:01.001Z,14.54
2019-05-05T15:37:06.585Z,13.47
2019-05-05T15:42:11.809Z,12.61
2019-05-05T15:47:18.018Z,11.92
2019-05-05T15:52:24.331Z,11.58
2019-05-05T15:57:30.042Z,11.65
2019-05-05T16:02:36.176Z,12.12
2019-05-05T16:07:41.474Z,12.24
2019-05-05T16:12:47.139Z,12.31
2019-05-05T16:18:17.091Z,12.59
2019-05-05T16:23:26.471Z,12.10
2019-05-05T16:28:31.690Z,11.77
2019-05-05T16:33:36.914Z,11.87
2019-05-05T16:38:43.588Z,11.45
2019-05-05T16:43:50.008Z,11.43
2019-05-05T16:48:55.350Z,11.38
2019-05-05T16:54:04.710Z,11.59
2019-05-05T16:59:09.954Z,11.62
2019-05-05T17:04:15.294Z,11.62
2019-05-05T17:09:20.744Z,11.67
2019-05-05T17:14:33.996Z,11.50
2019-05-05T17:19:51.510Z,11.40
2019-05-05T17:24:58.664Z,11.34
2019-05-05T17:30:05.029Z,10.99
2019-05-05T17:35:11.566Z,10.95
2019-05-05T17:40:35.914Z,10.44
2019-05-05T17:46:00.754Z,9.60
2019-05-05T17:51:19.929Z,9.34
2019-05-05T17:56:25.304Z,9.63
2019-05-05T18:01:31.075Z,9.58
2019-05-05T18:06:44.803Z,9.61
2019-05-05T18:12:04.349Z,9.71
2019-05-05T18:17:10.012Z,9.87
2019-05-05T18:22:15.355Z,9.82
2019-05-05T18:27:21.016Z,9.76
2019-05-05T18:32:26.360Z,9.67
2019-05-05T18:37:31.671Z,9.47
2019-05-05T18:42:37.427Z,9.05
2019-05-05T18:47:43.545Z,8.80
2019-05-05T18:52:49.819Z,8.76
2019-05-05T18:57:56.534Z,8.73
2019-05-05T19:03:17.681Z,8.65
2019-05-05T19:08:25.485Z,8.74
2019-05-05T19:13:31.172Z,8.57
2019-05-05T19:18:36.973Z,8.58
2019-05-05T19:23:42.264Z,8.58
2019-05-05T19:28:50.257Z,8.64
2019-05-05T19:33:55.880Z,8.59
2019-05-05T19:39:04.087Z,8.64
2019-05-05T19:44:11.545Z,8.58
2019-05-05T19:49:17.771Z,8.68
2019-05-05T19:54:23.318Z,8.65
2019-05-05T19:59:30.212Z,8.55
2019-05-05T20:04:35.895Z,8.52
2019-05-05T20:09:43.653Z,8.50
2019-05-05T20:14:49.120Z,8.48
2019-05-05T20:19:54.769Z,8.40
2019-05-05T20:25:00.377Z,8.34
2019-05-05T20:30:07.015Z,8.35
2019-05-05T20:35:29.464Z,8.29
2019-05-05T20:40:37.024Z,8.12
2019-05-05T20:45:44.271Z,8.08
2019-05-05T20:50:49.375Z,8.00
2019-05-05T20:55:54.816Z,7.99
2019-05-05T21:01:01.330Z,7.99
2019-05-05T21:06:06.772Z,7.83
2019-05-05T21:11:14.116Z,7.77
2019-05-05T21:16:19.397Z,7.70
2019-05-05T21:21:27.353Z,7.74
2019-05-05T21:26:50.566Z,7.59
2019-05-05T21:31:55.809Z,7.51
2019-05-05T21:37:01.463Z,7.40
2019-05-05T21:42:07.258Z,7.30
2019-05-05T21:47:14.694Z,7.15
2019-05-05T21:52:38.840Z,7.05
2019-05-05T21:58:25.167Z,7.01
2019-05-05T22:03:34.830Z,7.03
2019-05-05T22:08:40.799Z,7.01
2019-05-05T22:13:46.117Z,7.03
2019-05-05T22:18:54.044Z,7.04
2019-05-05T22:24:17.870Z,7.09
2019-05-05T22:29:24.848Z,7.11
2019-05-05T22:34:30.833Z,7.03
2019-05-05T22:39:36.162Z,7.05
2019-05-05T22:44:41.713Z,6.98
2019-05-05T22:49:47.070Z,6.97
2019-05-05T22:54:52.305Z,6.84
2019-05-05T22:59:57.694Z,6.77
2019-05-05T23:05:09.657Z,6.68
2019-05-05T23:10:15.086Z,6.63
2019-05-05T23:15:21.050Z,6.57
2019-05-05T23:20:50.542Z,6.55
2019-05-05T23:25:56.836Z,6.52
2019-05-05T23:31:02.129Z,6.54
2019-05-05T23:36:09.282Z,6.34
2019-05-05T23:41:14.750Z,6.32
2019-05-05T23:46:20.116Z,6.28
2019-05-05T23:51:25.554Z,6.20
2019-05-05T23:56:30.817Z,6.28
